sensor_id;sensor_type;location;lat;lon;timestamp;temperature;humidity
56725;DHT22;42608;52.776;6.968;2023-04-24T00:00:12;10.80;99.90
56725;DHT22;42608;52.776;6.968;2023-04-24T00:02:40;10.70;99.90
56725;DHT22;42608;52.776;6.968;2023-04-24T00:05:06;10.70;99.90
56725;DHT22;42608;52.776;6.968;2023-04-24T00:07:33;10.70;99.90
56725;DHT22;42608;52.776;6.968;2023-04-24T00:09:58;10.70;99.90
56725;DHT22;42608;52.776;6.968;2023-04-24T00:12:24;10.60;99.90
56725;DHT22;42608;52.776;6.968;2023-04-24T00:14:50;10.60;99.90
56725;DHT22;42608;52.776;6.968;2023-04-24T00:17:16;10.60;99.90
56725;DHT22;42608;52.776;6.968;2023-04-24T00:19:45;10.60;99.90
56725;DHT22;42608;52.776;6.968;2023-04-24T00:22:11;10.60;99.90
56725;DHT22;42608;52.776;6.968;2023-04-24T00:24:38;10.50;99.90
56725;DHT22;42608;52.776;6.968;2023-04-24T00:27:04;10.50;99.90
56725;DHT22;42608;52.776;6.968;2023-04-24T00:29:30;10.50;99.90
56725;DHT22;42608;52.776;6.968;2023-04-24T00:31:55;10.40;99.90
56725;DHT22;42608;52.776;6.968;2023-04-24T00:34:21;10.40;99.90
56725;DHT22;42608;52.776;6.968;2023-04-24T00:36:46;10.40;99.90
56725;DHT22;42608;52.776;6.968;2023-04-24T00:39:14;10.40;99.90
56725;DHT22;42608;52.776;6.968;2023-04-24T00:41:39;10.30;99.90
56725;DHT22;42608;52.776;6.968;2023-04-24T00:44:05;10.30;99.90
56725;DHT22;42608;52.776;6.968;2023-04-24T00:46:31;10.30;99.90
56725;DHT22;42608;52.776;6.968;2023-04-24T00:48:56;10.30;99.90
56725;DHT22;42608;52.776;6.968;2023-04-24T00:51:24;10.20;99.90
56725;DHT22;42608;52.776;6.968;2023-04-24T00:53:49;10.10;99.90
56725;DHT22;42608;52.776;6.968;2023-04-24T00:56:16;10.10;99.90
56725;DHT22;42608;52.776;6.968;2023-04-24T00:58:42;10.10;99.90
56725;DHT22;42608;52.776;6.968;2023-04-24T01:01:07;10.10;99.90
56725;DHT22;42608;52.776;6.968;2023-04-24T01:03:34;10.10;99.90
56725;DHT22;42608;52.776;6.968;2023-04-24T01:06:02;10.00;99.90
56725;DHT22;42608;52.776;6.968;2023-04-24T01:08:28;10.00;99.90
56725;DHT22;42608;52.776;6.968;2023-04-24T01:10:54;10.00;99.90
56725;DHT22;42608;52.776;6.968;2023-04-24T01:13:20;10.00;99.90
56725;DHT22;42608;52.776;6.968;2023-04-24T01:15:46;10.00;99.90
56725;DHT22;42608;52.776;6.968;2023-04-24T01:18:12;10.00;99.90
56725;DHT22;42608;52.776;6.968;2023-04-24T01:20:39;9.90;99.90
56725;DHT22;42608;52.776;6.968;2023-04-24T01:23:05;9.90;99.90
56725;DHT22;42608;52.776;6.968;2023-04-24T01:25:31;9.90;99.90
56725;DHT22;42608;52.776;6.968;2023-04-24T01:27:57;9.90;99.90
56725;DHT22;42608;52.776;6.968;2023-04-24T01:30:23;9.90;99.90
56725;DHT22;42608;52.776;6.968;2023-04-24T01:32:48;9.90;99.90
56725;DHT22;42608;52.776;6.968;2023-04-24T01:35:14;9.90;99.90
56725;DHT22;42608;52.776;6.968;2023-04-24T01:37:39;9.90;99.90
56725;DHT22;42608;52.776;6.968;2023-04-24T01:40:06;9.80;99.90
56725;DHT22;42608;52.776;6.968;2023-04-24T01:42:32;9.80;99.90
56725;DHT22;42608;52.776;6.968;2023-04-24T01:44:57;9.80;99.90
56725;DHT22;42608;52.776;6.968;2023-04-24T01:47:23;9.80;99.90
56725;DHT22;42608;52.776;6.968;2023-04-24T01:49:49;9.80;99.90
56725;DHT22;42608;52.776;6.968;2023-04-24T01:52:15;9.90;99.90
56725;DHT22;42608;52.776;6.968;2023-04-24T01:54:42;9.80;99.90
56725;DHT22;42608;52.776;6.968;2023-04-24T01:57:08;9.80;99.90
56725;DHT22;42608;52.776;6.968;2023-04-24T01:59:33;9.80;99.90
56725;DHT22;42608;52.776;6.968;2023-04-24T02:01:59;9.80;99.90
56725;DHT22;42608;52.776;6.968;2023-04-24T02:04:25;9.80;99.90
56725;DHT22;42608;52.776;6.968;2023-04-24T02:06:51;9.80;99.90
56725;DHT22;42608;52.776;6.968;2023-04-24T02:09:16;9.80;99.90
56725;DHT22;42608;52.776;6.968;2023-04-24T02:11:42;9.80;99.90
56725;DHT22;42608;52.776;6.968;2023-04-24T02:14:07;9.80;99.90
56725;DHT22;42608;52.776;6.968;2023-04-24T02:16:33;9.80;99.90
56725;DHT22;42608;52.776;6.968;2023-04-24T02:19:01;9.80;99.90
56725;DHT22;42608;52.776;6.968;2023-04-24T02:21:27;9.80;99.90
56725;DHT22;42608;52.776;6.968;2023-04-24T02:23:53;9.90;99.90
56725;DHT22;42608;52.776;6.968;2023-04-24T02:26:19;9.90;99.90
56725;DHT22;42608;52.776;6.968;2023-04-24T02:28:44;9.90;99.90
56725;DHT22;42608;52.776;6.968;2023-04-24T02:31:10;9.80;99.90
56725;DHT22;42608;52.776;6.968;2023-04-24T02:33:35;9.90;99.90
56725;DHT22;42608;52.776;6.968;2023-04-24T02:36:01;9.90;99.90
56725;DHT22;42608;52.776;6.968;2023-04-24T02:38:27;9.90;99.90
56725;DHT22;42608;52.776;6.968;2023-04-24T02:40:52;9.90;99.90
56725;DHT22;42608;52.776;6.968;2023-04-24T02:43:18;9.90;99.90
56725;DHT22;42608;52.776;6.968;2023-04-24T02:45:43;9.90;99.90
56725;DHT22;42608;52.776;6.968;2023-04-24T02:48:09;9.90;99.90
56725;DHT22;42608;52.776;6.968;2023-04-24T02:50:35;9.90;99.90
56725;DHT22;42608;52.776;6.968;2023-04-24T02:53:03;9.80;99.90
56725;DHT22;42608;52.776;6.968;2023-04-24T02:55:29;9.90;99.90
56725;DHT22;42608;52.776;6.968;2023-04-24T02:57:54;9.80;99.90
56725;DHT22;42608;52.776;6.968;2023-04-24T03:00:20;9.80;99.90
56725;DHT22;42608;52.776;6.968;2023-04-24T03:02:45;9.80;99.90
56725;DHT22;42608;52.776;6.968;2023-04-24T03:05:11;9.80;99.90
56725;DHT22;42608;52.776;6.968;2023-04-24T03:07:37;9.90;99.90
56725;DHT22;42608;52.776;6.968;2023-04-24T03:10:03;9.90;99.90
56725;DHT22;42608;52.776;6.968;2023-04-24T03:12:30;9.80;99.90
56725;DHT22;42608;52.776;6.968;2023-04-24T03:14:55;9.80;99.90
56725;DHT22;42608;52.776;6.968;2023-04-24T03:17:21;9.80;99.90
56725;DHT22;42608;52.776;6.968;2023-04-24T03:19:47;9.90;99.90
56725;DHT22;42608;52.776;6.968;2023-04-24T03:22:12;9.80;99.90
56725;DHT22;42608;52.776;6.968;2023-04-24T03:24:38;9.80;99.90
56725;DHT22;42608;52.776;6.968;2023-04-24T03:27:03;9.80;99.90
56725;DHT22;42608;52.776;6.968;2023-04-24T03:29:29;9.80;99.90
56725;DHT22;42608;52.776;6.968;2023-04-24T03:31:54;9.80;99.90
56725;DHT22;42608;52.776;6.968;2023-04-24T03:34:20;9.80;99.90
56725;DHT22;42608;52.776;6.968;2023-04-24T03:36:45;9.80;99.90
56725;DHT22;42608;52.776;6.968;2023-04-24T03:39:13;9.80;99.90
56725;DHT22;42608;52.776;6.968;2023-04-24T03:41:38;9.80;99.90
56725;DHT22;42608;52.776;6.968;2023-04-24T03:44:04;9.70;99.90
56725;DHT22;42608;52.776;6.968;2023-04-24T03:46:29;9.70;99.90
56725;DHT22;42608;52.776;6.968;2023-04-24T03:48:55;9.70;99.90
56725;DHT22;42608;52.776;6.968;2023-04-24T03:51:20;9.70;99.90
56725;DHT22;42608;52.776;6.968;2023-04-24T03:53:47;9.70;99.90
56725;DHT22;42608;52.776;6.968;2023-04-24T03:56:12;9.70;99.90
56725;DHT22;42608;52.776;6.968;2023-04-24T03:58:38;9.70;99.90
56725;DHT22;42608;52.776;6.968;2023-04-24T04:01:03;9.70;99.90
56725;DHT22;42608;52.776;6.968;2023-04-24T04:03:29;9.60;99.90
56725;DHT22;42608;52.776;6.968;2023-04-24T04:05:55;9.60;99.90
56725;DHT22;42608;52.776;6.968;2023-04-24T04:08:20;9.60;99.90
56725;DHT22;42608;52.776;6.968;2023-04-24T04:10:46;9.60;99.90
56725;DHT22;42608;52.776;6.968;2023-04-24T04:13:11;9.60;99.90
56725;DHT22;42608;52.776;6.968;2023-04-24T04:15:37;9.60;99.90
56725;DHT22;42608;52.776;6.968;2023-04-24T04:18:02;9.60;99.90
56725;DHT22;42608;52.776;6.968;2023-04-24T04:20:28;9.60;99.90
56725;DHT22;42608;52.776;6.968;2023-04-24T04:22:54;9.60;99.90
56725;DHT22;42608;52.776;6.968;2023-04-24T04:25:19;9.60;99.90
56725;DHT22;42608;52.776;6.968;2023-04-24T04:27:45;9.60;99.90
56725;DHT22;42608;52.776;6.968;2023-04-24T04:30:13;9.60;99.90
56725;DHT22;42608;52.776;6.968;2023-04-24T04:32:38;9.60;99.90
56725;DHT22;42608;52.776;6.968;2023-04-24T04:35:04;9.60;99.90
56725;DHT22;42608;52.776;6.968;2023-04-24T04:37:30;9.60;99.90
56725;DHT22;42608;52.776;6.968;2023-04-24T04:39:57;9.60;99.90
56725;DHT22;42608;52.776;6.968;2023-04-24T04:42:23;9.60;99.90
56725;DHT22;42608;52.776;6.968;2023-04-24T04:44:49;9.60;99.90
56725;DHT22;42608;52.776;6.968;2023-04-24T04:47:16;9.60;99.90
56725;DHT22;42608;52.776;6.968;2023-04-24T04:49:42;9.60;99.90
56725;DHT22;42608;52.776;6.968;2023-04-24T04:52:08;9.60;99.90
56725;DHT22;42608;52.776;6.968;2023-04-24T04:54:34;9.60;99.90
56725;DHT22;42608;52.776;6.968;2023-04-24T04:57:00;9.60;99.90
56725;DHT22;42608;52.776;6.968;2023-04-24T04:59:26;9.60;99.90
56725;DHT22;42608;52.776;6.968;2023-04-24T05:01:51;9.60;99.90
56725;DHT22;42608;52.776;6.968;2023-04-24T05:04:17;9.60;99.90
56725;DHT22;42608;52.776;6.968;2023-04-24T05:06:43;9.60;99.90
56725;DHT22;42608;52.776;6.968;2023-04-24T05:09:08;9.60;99.90
56725;DHT22;42608;52.776;6.968;2023-04-24T05:11:34;9.60;99.90
56725;DHT22;42608;52.776;6.968;2023-04-24T05:14:00;9.60;99.90
56725;DHT22;42608;52.776;6.968;2023-04-24T05:16:26;9.60;99.90
56725;DHT22;42608;52.776;6.968;2023-04-24T05:18:51;9.60;99.90
56725;DHT22;42608;52.776;6.968;2023-04-24T05:21:17;9.60;99.90
56725;DHT22;42608;52.776;6.968;2023-04-24T05:23:43;9.60;99.90
56725;DHT22;42608;52.776;6.968;2023-04-24T05:26:08;9.60;99.90
56725;DHT22;42608;52.776;6.968;2023-04-24T05:28:34;9.60;99.90
56725;DHT22;42608;52.776;6.968;2023-04-24T05:31:02;9.60;99.90
56725;DHT22;42608;52.776;6.968;2023-04-24T05:33:27;9.70;99.90
56725;DHT22;42608;52.776;6.968;2023-04-24T05:35:53;9.70;99.90
56725;DHT22;42608;52.776;6.968;2023-04-24T05:38:19;9.70;99.90
56725;DHT22;42608;52.776;6.968;2023-04-24T05:40:47;9.60;99.90
56725;DHT22;42608;52.776;6.968;2023-04-24T05:43:13;9.60;99.90
56725;DHT22;42608;52.776;6.968;2023-04-24T05:45:38;9.70;99.90
56725;DHT22;42608;52.776;6.968;2023-04-24T05:48:04;9.60;99.90
56725;DHT22;42608;52.776;6.968;2023-04-24T05:50:30;9.60;99.90
56725;DHT22;42608;52.776;6.968;2023-04-24T05:52:56;9.70;99.90
56725;DHT22;42608;52.776;6.968;2023-04-24T05:55:25;9.60;99.90
56725;DHT22;42608;52.776;6.968;2023-04-24T05:57:51;9.60;99.90
56725;DHT22;42608;52.776;6.968;2023-04-24T06:00:16;9.70;99.90
56725;DHT22;42608;52.776;6.968;2023-04-24T06:02:44;9.70;99.90
56725;DHT22;42608;52.776;6.968;2023-04-24T06:05:10;9.70;99.90
56725;DHT22;42608;52.776;6.968;2023-04-24T06:07:36;9.70;99.90
56725;DHT22;42608;52.776;6.968;2023-04-24T06:10:02;9.70;99.90
56725;DHT22;42608;52.776;6.968;2023-04-24T06:12:27;9.70;99.90
56725;DHT22;42608;52.776;6.968;2023-04-24T06:14:53;9.70;99.90
56725;DHT22;42608;52.776;6.968;2023-04-24T06:17:20;9.70;99.90
56725;DHT22;42608;52.776;6.968;2023-04-24T06:19:46;9.60;99.90
56725;DHT22;42608;52.776;6.968;2023-04-24T06:22:12;9.70;99.90
56725;DHT22;42608;52.776;6.968;2023-04-24T06:24:39;9.70;99.90
56725;DHT22;42608;52.776;6.968;2023-04-24T06:27:04;9.70;99.90
56725;DHT22;42608;52.776;6.968;2023-04-24T06:29:30;9.70;99.90
56725;DHT22;42608;52.776;6.968;2023-04-24T06:31:56;9.70;99.90
56725;DHT22;42608;52.776;6.968;2023-04-24T06:34:21;9.60;99.90
56725;DHT22;42608;52.776;6.968;2023-04-24T06:36:47;9.60;99.90
56725;DHT22;42608;52.776;6.968;2023-04-24T06:39:12;9.60;99.90
56725;DHT22;42608;52.776;6.968;2023-04-24T06:41:38;9.60;99.90
56725;DHT22;42608;52.776;6.968;2023-04-24T06:44:05;9.60;99.90
56725;DHT22;42608;52.776;6.968;2023-04-24T06:46:30;9.60;99.90
56725;DHT22;42608;52.776;6.968;2023-04-24T06:48:56;9.60;99.90
56725;DHT22;42608;52.776;6.968;2023-04-24T06:51:25;9.50;99.90
56725;DHT22;42608;52.776;6.968;2023-04-24T06:53:51;9.60;99.90
56725;DHT22;42608;52.776;6.968;2023-04-24T06:56:16;9.60;99.90
56725;DHT22;42608;52.776;6.968;2023-04-24T06:58:42;9.50;99.90
56725;DHT22;42608;52.776;6.968;2023-04-24T07:01:08;9.50;99.90
56725;DHT22;42608;52.776;6.968;2023-04-24T07:03:33;9.50;99.90
56725;DHT22;42608;52.776;6.968;2023-04-24T07:05:59;9.40;99.90
56725;DHT22;42608;52.776;6.968;2023-04-24T07:08:24;9.50;99.90
56725;DHT22;42608;52.776;6.968;2023-04-24T07:10:50;9.40;99.90
56725;DHT22;42608;52.776;6.968;2023-04-24T07:13:16;9.40;99.90
56725;DHT22;42608;52.776;6.968;2023-04-24T07:15:42;9.40;99.90
56725;DHT22;42608;52.776;6.968;2023-04-24T07:18:08;9.40;99.90
56725;DHT22;42608;52.776;6.968;2023-04-24T07:20:33;9.40;99.90
56725;DHT22;42608;52.776;6.968;2023-04-24T07:22:59;9.40;99.90
56725;DHT22;42608;52.776;6.968;2023-04-24T07:25:25;9.40;99.90
56725;DHT22;42608;52.776;6.968;2023-04-24T07:27:51;9.40;99.90
56725;DHT22;42608;52.776;6.968;2023-04-24T07:30:16;9.40;99.90
56725;DHT22;42608;52.776;6.968;2023-04-24T07:32:42;9.40;99.90
56725;DHT22;42608;52.776;6.968;2023-04-24T07:35:07;9.40;99.90
56725;DHT22;42608;52.776;6.968;2023-04-24T07:37:35;9.40;99.90
56725;DHT22;42608;52.776;6.968;2023-04-24T07:40:00;9.40;99.90
56725;DHT22;42608;52.776;6.968;2023-04-24T07:42:26;9.40;99.90
56725;DHT22;42608;52.776;6.968;2023-04-24T07:44:51;9.40;99.90
56725;DHT22;42608;52.776;6.968;2023-04-24T07:47:17;9.30;99.90
56725;DHT22;42608;52.776;6.968;2023-04-24T07:49:43;9.30;99.90
56725;DHT22;42608;52.776;6.968;2023-04-24T07:52:08;9.40;99.90
56725;DHT22;42608;52.776;6.968;2023-04-24T07:54:34;9.40;99.90
56725;DHT22;42608;52.776;6.968;2023-04-24T07:56:59;9.40;99.90
56725;DHT22;42608;52.776;6.968;2023-04-24T07:59:26;9.40;99.90
56725;DHT22;42608;52.776;6.968;2023-04-24T08:01:51;9.50;99.90
56725;DHT22;42608;52.776;6.968;2023-04-24T08:04:17;9.50;99.90
56725;DHT22;42608;52.776;6.968;2023-04-24T08:06:43;9.60;99.90
56725;DHT22;42608;52.776;6.968;2023-04-24T08:09:09;9.60;99.90
56725;DHT22;42608;52.776;6.968;2023-04-24T08:11:35;9.70;99.90
56725;DHT22;42608;52.776;6.968;2023-04-24T08:14:00;9.70;99.90
56725;DHT22;42608;52.776;6.968;2023-04-24T08:16:26;9.70;99.90
56725;DHT22;42608;52.776;6.968;2023-04-24T08:18:52;9.80;99.90
56725;DHT22;42608;52.776;6.968;2023-04-24T08:21:18;9.80;99.90
56725;DHT22;42608;52.776;6.968;2023-04-24T08:23:44;9.80;99.90
56725;DHT22;42608;52.776;6.968;2023-04-24T08:26:11;9.80;99.90
56725;DHT22;42608;52.776;6.968;2023-04-24T08:28:36;9.80;99.90
56725;DHT22;42608;52.776;6.968;2023-04-24T08:31:02;9.80;99.90
56725;DHT22;42608;52.776;6.968;2023-04-24T08:33:28;9.80;99.90
56725;DHT22;42608;52.776;6.968;2023-04-24T08:36:05;9.90;99.90
56725;DHT22;42608;52.776;6.968;2023-04-24T08:38:31;9.90;99.90
56725;DHT22;42608;52.776;6.968;2023-04-24T08:40:57;9.80;99.90
56725;DHT22;42608;52.776;6.968;2023-04-24T08:43:23;9.80;99.90
56725;DHT22;42608;52.776;6.968;2023-04-24T08:45:50;9.80;99.90
56725;DHT22;42608;52.776;6.968;2023-04-24T08:48:16;9.90;99.90
56725;DHT22;42608;52.776;6.968;2023-04-24T08:50:42;9.80;99.90
56725;DHT22;42608;52.776;6.968;2023-04-24T08:53:10;9.80;99.90
56725;DHT22;42608;52.776;6.968;2023-04-24T08:55:37;9.80;99.90
56725;DHT22;42608;52.776;6.968;2023-04-24T08:58:02;9.80;99.90
56725;DHT22;42608;52.776;6.968;2023-04-24T09:00:29;9.80;99.90
56725;DHT22;42608;52.776;6.968;2023-04-24T09:02:55;9.80;99.90
56725;DHT22;42608;52.776;6.968;2023-04-24T09:05:21;9.80;99.90
56725;DHT22;42608;52.776;6.968;2023-04-24T09:07:53;9.80;99.90
56725;DHT22;42608;52.776;6.968;2023-04-24T09:10:19;9.80;99.90
56725;DHT22;42608;52.776;6.968;2023-04-24T09:12:45;9.80;99.90
56725;DHT22;42608;52.776;6.968;2023-04-24T09:15:11;9.80;99.90
56725;DHT22;42608;52.776;6.968;2023-04-24T09:17:37;9.70;99.90
56725;DHT22;42608;52.776;6.968;2023-04-24T09:20:03;9.70;99.90
56725;DHT22;42608;52.776;6.968;2023-04-24T09:22:32;9.60;99.90
56725;DHT22;42608;52.776;6.968;2023-04-24T09:25:04;9.60;99.90
56725;DHT22;42608;52.776;6.968;2023-04-24T09:27:32;9.60;99.90
56725;DHT22;42608;52.776;6.968;2023-04-24T09:29:58;9.60;99.90
56725;DHT22;42608;52.776;6.968;2023-04-24T09:32:24;9.60;99.90
56725;DHT22;42608;52.776;6.968;2023-04-24T09:35:14;9.60;99.90
56725;DHT22;42608;52.776;6.968;2023-04-24T09:37:41;9.60;99.90
56725;DHT22;42608;52.776;6.968;2023-04-24T09:42:39;9.50;99.90
56725;DHT22;42608;52.776;6.968;2023-04-24T09:45:09;9.50;99.90
56725;DHT22;42608;52.776;6.968;2023-04-24T09:47:36;9.50;99.90
56725;DHT22;42608;52.776;6.968;2023-04-24T09:50:08;9.60;99.90
56725;DHT22;42608;52.776;6.968;2023-04-24T09:52:34;9.60;99.90
56725;DHT22;42608;52.776;6.968;2023-04-24T09:55:00;9.50;99.90
56725;DHT22;42608;52.776;6.968;2023-04-24T09:57:26;9.50;99.90
56725;DHT22;42608;52.776;6.968;2023-04-24T09:59:53;9.40;99.90
56725;DHT22;42608;52.776;6.968;2023-04-24T10:02:19;9.30;99.90
56725;DHT22;42608;52.776;6.968;2023-04-24T10:04:54;9.30;99.90
56725;DHT22;42608;52.776;6.968;2023-04-24T10:07:21;9.20;99.90
56725;DHT22;42608;52.776;6.968;2023-04-24T10:09:46;9.20;99.90
56725;DHT22;42608;52.776;6.968;2023-04-24T10:12:12;9.10;99.90
56725;DHT22;42608;52.776;6.968;2023-04-24T10:14:38;9.10;99.90
56725;DHT22;42608;52.776;6.968;2023-04-24T10:17:03;9.10;99.90
56725;DHT22;42608;52.776;6.968;2023-04-24T10:19:30;9.10;99.90
56725;DHT22;42608;52.776;6.968;2023-04-24T10:21:56;9.10;99.90
56725;DHT22;42608;52.776;6.968;2023-04-24T10:24:22;9.10;99.90
56725;DHT22;42608;52.776;6.968;2023-04-24T10:26:48;9.10;99.90
56725;DHT22;42608;52.776;6.968;2023-04-24T10:29:14;9.00;99.90
56725;DHT22;42608;52.776;6.968;2023-04-24T10:31:40;9.00;99.90
56725;DHT22;42608;52.776;6.968;2023-04-24T10:34:07;9.10;99.90
56725;DHT22;42608;52.776;6.968;2023-04-24T10:36:33;9.10;99.90
56725;DHT22;42608;52.776;6.968;2023-04-24T10:39:03;9.10;99.90
56725;DHT22;42608;52.776;6.968;2023-04-24T10:41:31;9.00;99.90
56725;DHT22;42608;52.776;6.968;2023-04-24T10:44:04;9.00;99.90
56725;DHT22;42608;52.776;6.968;2023-04-24T10:46:30;9.00;99.90
56725;DHT22;42608;52.776;6.968;2023-04-24T10:48:55;9.00;99.90
56725;DHT22;42608;52.776;6.968;2023-04-24T10:51:22;9.00;99.90
56725;DHT22;42608;52.776;6.968;2023-04-24T10:53:47;9.00;99.90
56725;DHT22;42608;52.776;6.968;2023-04-24T10:56:15;9.10;99.90
56725;DHT22;42608;52.776;6.968;2023-04-24T10:58:42;9.10;99.90
56725;DHT22;42608;52.776;6.968;2023-04-24T11:01:29;9.10;99.90
56725;DHT22;42608;52.776;6.968;2023-04-24T11:04:04;9.10;99.90
56725;DHT22;42608;52.776;6.968;2023-04-24T11:06:30;9.10;99.90
56725;DHT22;42608;52.776;6.968;2023-04-24T11:09:06;9.10;99.90
56725;DHT22;42608;52.776;6.968;2023-04-24T11:11:33;9.20;99.90
56725;DHT22;42608;52.776;6.968;2023-04-24T11:16:29;9.20;99.90
56725;DHT22;42608;52.776;6.968;2023-04-24T11:24:27;9.00;99.90
56725;DHT22;42608;52.776;6.968;2023-04-24T11:26:56;9.00;99.90
56725;DHT22;42608;52.776;6.968;2023-04-24T11:29:23;9.00;99.90
56725;DHT22;42608;52.776;6.968;2023-04-24T11:32:14;9.00;99.90
56725;DHT22;42608;52.776;6.968;2023-04-24T11:34:39;9.00;99.90
56725;DHT22;42608;52.776;6.968;2023-04-24T11:37:05;8.90;99.90
56725;DHT22;42608;52.776;6.968;2023-04-24T11:39:36;9.00;99.90
56725;DHT22;42608;52.776;6.968;2023-04-24T11:42:02;9.00;99.90
56725;DHT22;42608;52.776;6.968;2023-04-24T11:44:38;9.10;99.90
56725;DHT22;42608;52.776;6.968;2023-04-24T11:47:05;9.10;99.90
56725;DHT22;42608;52.776;6.968;2023-04-24T11:49:31;9.10;99.90
56725;DHT22;42608;52.776;6.968;2023-04-24T11:51:56;9.10;99.90
56725;DHT22;42608;52.776;6.968;2023-04-24T11:54:22;9.10;99.90
56725;DHT22;42608;52.776;6.968;2023-04-24T11:56:48;9.00;99.90
56725;DHT22;42608;52.776;6.968;2023-04-24T11:59:19;9.00;99.90
56725;DHT22;42608;52.776;6.968;2023-04-24T12:01:45;8.90;99.90
56725;DHT22;42608;52.776;6.968;2023-04-24T12:04:11;8.90;99.90
56725;DHT22;42608;52.776;6.968;2023-04-24T12:06:36;8.90;99.90
56725;DHT22;42608;52.776;6.968;2023-04-24T12:09:02;9.00;99.90
56725;DHT22;42608;52.776;6.968;2023-04-24T12:11:28;9.00;99.90
56725;DHT22;42608;52.776;6.968;2023-04-24T12:13:53;9.00;99.90
56725;DHT22;42608;52.776;6.968;2023-04-24T12:16:19;9.00;99.90
56725;DHT22;42608;52.776;6.968;2023-04-24T12:18:45;9.10;99.90
56725;DHT22;42608;52.776;6.968;2023-04-24T12:21:29;9.10;99.90
56725;DHT22;42608;52.776;6.968;2023-04-24T12:23:57;9.20;99.90
56725;DHT22;42608;52.776;6.968;2023-04-24T12:26:23;9.20;99.90
56725;DHT22;42608;52.776;6.968;2023-04-24T12:28:49;9.30;99.90
56725;DHT22;42608;52.776;6.968;2023-04-24T12:31:15;9.30;99.90
56725;DHT22;42608;52.776;6.968;2023-04-24T12:33:41;9.30;99.90
56725;DHT22;42608;52.776;6.968;2023-04-24T12:36:11;9.30;99.90
56725;DHT22;42608;52.776;6.968;2023-04-24T12:38:37;9.30;99.90
56725;DHT22;42608;52.776;6.968;2023-04-24T12:43:53;9.30;99.90
56725;DHT22;42608;52.776;6.968;2023-04-24T12:46:19;9.30;99.90
56725;DHT22;42608;52.776;6.968;2023-04-24T12:48:44;9.30;99.90
56725;DHT22;42608;52.776;6.968;2023-04-24T12:51:10;9.20;99.90
56725;DHT22;42608;52.776;6.968;2023-04-24T12:53:36;9.20;99.90
56725;DHT22;42608;52.776;6.968;2023-04-24T12:56:01;9.20;99.90
56725;DHT22;42608;52.776;6.968;2023-04-24T12:58:27;9.10;99.90
56725;DHT22;42608;52.776;6.968;2023-04-24T13:00:52;9.10;99.90
56725;DHT22;42608;52.776;6.968;2023-04-24T13:03:18;9.10;99.90
56725;DHT22;42608;52.776;6.968;2023-04-24T13:05:44;9.10;99.90
56725;DHT22;42608;52.776;6.968;2023-04-24T13:08:09;9.10;99.90
56725;DHT22;42608;52.776;6.968;2023-04-24T13:10:41;9.10;99.90
56725;DHT22;42608;52.776;6.968;2023-04-24T13:13:07;9.10;99.90
56725;DHT22;42608;52.776;6.968;2023-04-24T13:15:36;9.10;99.90
56725;DHT22;42608;52.776;6.968;2023-04-24T13:18:01;9.10;99.90
56725;DHT22;42608;52.776;6.968;2023-04-24T13:20:27;9.10;99.90
56725;DHT22;42608;52.776;6.968;2023-04-24T13:22:52;9.10;99.90
56725;DHT22;42608;52.776;6.968;2023-04-24T13:25:18;9.20;99.90
56725;DHT22;42608;52.776;6.968;2023-04-24T13:27:45;9.20;99.90
56725;DHT22;42608;52.776;6.968;2023-04-24T13:30:11;9.20;99.90
56725;DHT22;42608;52.776;6.968;2023-04-24T13:32:37;9.30;99.90
56725;DHT22;42608;52.776;6.968;2023-04-24T13:35:02;9.30;99.90
56725;DHT22;42608;52.776;6.968;2023-04-24T13:37:34;9.30;99.90
56725;DHT22;42608;52.776;6.968;2023-04-24T13:39:59;9.30;99.90
56725;DHT22;42608;52.776;6.968;2023-04-24T13:42:28;9.40;99.90
56725;DHT22;42608;52.776;6.968;2023-04-24T13:44:53;9.30;99.90
56725;DHT22;42608;52.776;6.968;2023-04-24T13:47:19;9.20;99.90
56725;DHT22;42608;52.776;6.968;2023-04-24T13:49:45;9.20;99.90
56725;DHT22;42608;52.776;6.968;2023-04-24T13:52:10;9.10;99.90
56725;DHT22;42608;52.776;6.968;2023-04-24T13:54:36;9.10;99.90
56725;DHT22;42608;52.776;6.968;2023-04-24T13:57:02;9.10;99.90
56725;DHT22;42608;52.776;6.968;2023-04-24T13:59:28;9.10;99.90
56725;DHT22;42608;52.776;6.968;2023-04-24T14:01:54;9.10;99.90
56725;DHT22;42608;52.776;6.968;2023-04-24T14:04:19;9.10;99.90
56725;DHT22;42608;52.776;6.968;2023-04-24T14:06:45;9.20;99.90
56725;DHT22;42608;52.776;6.968;2023-04-24T14:09:11;9.20;99.90
56725;DHT22;42608;52.776;6.968;2023-04-24T14:11:43;9.20;99.90
56725;DHT22;42608;52.776;6.968;2023-04-24T14:14:09;9.20;99.90
56725;DHT22;42608;52.776;6.968;2023-04-24T14:16:35;9.20;99.90
56725;DHT22;42608;52.776;6.968;2023-04-24T14:19:00;9.10;99.90
56725;DHT22;42608;52.776;6.968;2023-04-24T14:21:26;9.20;99.90
56725;DHT22;42608;52.776;6.968;2023-04-24T14:23:51;9.10;99.90
56725;DHT22;42608;52.776;6.968;2023-04-24T14:26:17;9.10;99.90
56725;DHT22;42608;52.776;6.968;2023-04-24T14:28:42;9.10;99.90
56725;DHT22;42608;52.776;6.968;2023-04-24T14:31:08;9.00;99.90
56725;DHT22;42608;52.776;6.968;2023-04-24T14:33:34;9.00;99.90
56725;DHT22;42608;52.776;6.968;2023-04-24T14:36:00;9.00;99.90
56725;DHT22;42608;52.776;6.968;2023-04-24T14:38:27;8.90;99.90
56725;DHT22;42608;52.776;6.968;2023-04-24T14:40:53;8.90;99.90
56725;DHT22;42608;52.776;6.968;2023-04-24T14:43:21;8.80;99.90
56725;DHT22;42608;52.776;6.968;2023-04-24T14:45:47;8.80;99.90
56725;DHT22;42608;52.776;6.968;2023-04-24T14:48:12;8.80;99.90
56725;DHT22;42608;52.776;6.968;2023-04-24T14:50:38;8.80;99.90
56725;DHT22;42608;52.776;6.968;2023-04-24T14:53:04;8.90;99.90
56725;DHT22;42608;52.776;6.968;2023-04-24T14:55:34;8.90;99.90
56725;DHT22;42608;52.776;6.968;2023-04-24T14:58:01;8.90;99.90
56725;DHT22;42608;52.776;6.968;2023-04-24T15:00:30;8.80;99.90
56725;DHT22;42608;52.776;6.968;2023-04-24T15:02:55;8.80;99.90
56725;DHT22;42608;52.776;6.968;2023-04-24T15:05:21;8.80;99.90
56725;DHT22;42608;52.776;6.968;2023-04-24T15:07:48;8.90;99.90
56725;DHT22;42608;52.776;6.968;2023-04-24T15:10:13;8.90;99.90
56725;DHT22;42608;52.776;6.968;2023-04-24T15:12:39;8.80;99.90
56725;DHT22;42608;52.776;6.968;2023-04-24T15:15:06;8.90;99.90
56725;DHT22;42608;52.776;6.968;2023-04-24T15:17:31;8.90;99.90
56725;DHT22;42608;52.776;6.968;2023-04-24T15:19:57;8.80;99.90
56725;DHT22;42608;52.776;6.968;2023-04-24T15:22:26;8.80;99.90
56725;DHT22;42608;52.776;6.968;2023-04-24T15:24:51;8.90;99.90
56725;DHT22;42608;52.776;6.968;2023-04-24T15:27:22;8.90;99.90
56725;DHT22;42608;52.776;6.968;2023-04-24T15:29:48;8.90;99.90
56725;DHT22;42608;52.776;6.968;2023-04-24T15:32:14;8.90;99.90
56725;DHT22;42608;52.776;6.968;2023-04-24T15:34:39;8.90;99.90
56725;DHT22;42608;52.776;6.968;2023-04-24T15:37:05;8.90;99.90
56725;DHT22;42608;52.776;6.968;2023-04-24T15:39:30;9.00;99.90
56725;DHT22;42608;52.776;6.968;2023-04-24T15:41:56;9.10;99.90
56725;DHT22;42608;52.776;6.968;2023-04-24T15:44:22;9.10;99.90
56725;DHT22;42608;52.776;6.968;2023-04-24T15:46:47;9.20;99.90
56725;DHT22;42608;52.776;6.968;2023-04-24T15:49:13;9.20;99.90
56725;DHT22;42608;52.776;6.968;2023-04-24T15:51:39;9.20;99.90